メインページ
METAR-TAF:

METAR-TAF

空港 :

マニラ, フィリピン

ニノイ・アキノ国際空港

緯度: 14-31N, 経度: 121-00E, 海抜: 14m

現時点の気象観測

当レポートは15分前の01:00(UTC)に作成
西/北西の風 6kt、西/南西から西/南西の間で変化する
気温 30°C
湿度 94%
気圧 1009 hPa
視程10km以上
高度2300ftの雲はほとんどない
高度10000ftの雲は散在している
高度24000ftの千切れ雲あり

METAR: RPLL 230100Z 30006KT 240V240 9999 FEW023 SCT100 BKN240 30/29 Q1009 NOSIG RMK A2980

時間: 09:15 (01:15 UTC)

予報

当レポートは2時間15分前の23:00(UTC)に作成
予報は23日の 00時(UTC)から 24日の 06時(UTC)まで有効
西の風 8kt
視程10km以上
高度2500ftの雲はほとんどない
高度10000ftの雲は散在している
23日の 00時(UTC)から 23日の 06時(UTC)まで一時的に
西の風 15kt
視程: 9000m
高度2300ftの雲はほとんどない
高度10000ftの千切れ雲あり
弱いにわか雨
23日の 08時(UTC)から 23日の 14時(UTC)まで一時的に
西/南西の風 12kt
視程: 9000m
高度2300ftの雲はほとんどない, 積乱雲.
高度2500ftの雲は散在している
高度9000ftの曇り
激しい雷雨, 小雨
23日の 18時(UTC)から 23日の 24時(UTC)まで一時的に
変向風 2kt
高度2300ftの雲はほとんどない
高度10000ftの雲は散在している
高度25000ftの千切れ雲あり

TAF: RPLL 222300Z 2300/2406 28008KT 9999 FEW025 SCT100 TX33/2306Z TN27/2321Z TEMPO 2300/2306 26015KT 9000 -SHRA FEW023 BKN100 TEMPO 2308/2314 25012KT 9000 -TSRA FEW023CB SCT025 OVC090 TEMPO 2318/2324 VRB02KT FEW023 SCT100 BKN250

4,000以上の空港の気象観測と天気予報(METAR報とTAF報)

利用可能な観測所は地図上に黄色い丸と赤い丸で示す。

丸の上にカーソルを重ねると観測所名を参照できる。

次にクリックすると気象観測と天気予報を参照できる。

マップの切り替え:黒色「×」印の緑ボタンをクリックして拡大、「-」印の緑ボタンをクリックして縮小、緑色の三角印をクリックして隣りの地図に切り替え


METAR-TAF: